Airfield :
LOGIN :

Register | Disclaimer

   EN    FR    IT 

 










Legend :    VFR   Marginal VFR   IFR   Intensive IFR   Very Intensive IFR
Visi :
Ceiling :
>= 8 km
>= 3000ft
5 to 8 km
1000 to 3000 ft
1500m to 5 km
500 to 1000 ft
800 to 1500m
200 to 500 ft
< 800m
< 200 ft
Symbols :   Thunderstorms  Fog  Heavy snow  Heavy precipitations  Wind > 20 kt
SIGMETs :     Misc.  Thunderstorms  Icing  Turbulence  Mountain Waves  Volcanic Ashes






- Airport Elevation : 157 ft
- IATA code : LIL


LFQQ - Lille Lesquin

CURRENT METAR :
  • 131030Z AUTO 28021KT 9999 -RA OVC012/// ///TCU 06/04 Q0978 BECMG 27020G35KT BKN025

EXPIRED METARs :
  • 131000Z AUTO 28022KT 9999 -RA BKN013/// OVC018/// ///TCU 06/04 Q0977 TEMPO 3000 SHRA BKN012 BKN025CB BECMG 27020G35KT
  • 130930Z AUTO 28026KT 9999 -RA BKN015/// OVC020/// ///TCU 05/04 Q0976 TEMPO 3000 SHRA BKN012 BKN025CB BECMG 27020G35KT
  • 130900Z AUTO 28015KT 9999 -RA FEW009/// OVC014/// ///TCU 06/05 Q0975 TEMPO 3000 SHRA BKN012 BKN025CB BECMG 27020G35KT
  • 130830Z AUTO 28021KT 9999 -RA BKN015/// OVC023/// ///TCU 06/04 Q0974 TEMPO 3000 SHRA BKN012 BKN025CB BECMG 27020G35KT
  • 130800Z AUTO 27020KT 9999 -RA BKN014/// OVC019/// ///TCU 06/05 Q0974 TEMPO 3000 SHRA BKN012 BKN025CB BECMG 27020G35KT

TAF TAF LFQQ
Valid from the 13 at 06:00 until the 14 at 12:00 UTC


130500Z 1306/1412 27020G35KT 9999 BKN025
TEMPO 1306/1311 3000 SHRA BKN012 BKN025CB
BECMG 1314/1316 27015KT
TEMPO 1323/1404 3000 RA BKN013 OVC030
BECMG 1404/1406 25020G30KT
TEMPO 1410/1412 25025G40KT 4000 SHRA BKN030TCU
ATIS : +33 3 20 16 19 54



MET'MAP, your aeronautical weather chart ! - Copyright ORBIFLY December 2007 - Disclaimer

ORBIFLY MET'MAP TEAM :

Programming & Development : Alexandra Zaïnal
Concept & original design : Baudouin d'Aumeries
Assistance for programming : Marc-Olivier Méhu
Technical & hardware support : Manuel Goepfert

Contact : metmap@orbifly.com




SOURCES & CREDITS :

   NOAA